sensor_id;sensor_type;location;lat;lon;timestamp;P1;durP1;ratioP1;P2;durP2;ratioP2
53775;SDS011;44276;49.534;6.378;2022-07-23T00:01:40;21.05;;;13.38;;
53775;SDS011;44276;49.534;6.378;2022-07-23T00:04:08;18.15;;;13.85;;
53775;SDS011;44276;49.534;6.378;2022-07-23T00:06:38;21.20;;;13.95;;
53775;SDS011;44276;49.534;6.378;2022-07-23T00:09:06;29.85;;;18.02;;
53775;SDS011;44276;49.534;6.378;2022-07-23T00:11:34;23.05;;;14.20;;
53775;SDS011;44276;49.534;6.378;2022-07-23T00:14:02;22.10;;;15.52;;
53775;SDS011;44276;49.534;6.378;2022-07-23T00:16:30;25.88;;;17.35;;
53775;SDS011;44276;49.534;6.378;2022-07-23T00:18:58;24.73;;;16.35;;
53775;SDS011;44276;49.534;6.378;2022-07-23T00:21:29;32.05;;;18.63;;
53775;SDS011;44276;49.534;6.378;2022-07-23T00:23:58;26.83;;;17.52;;
53775;SDS011;44276;49.534;6.378;2022-07-23T00:26:26;34.85;;;20.77;;
53775;SDS011;44276;49.534;6.378;2022-07-23T00:28:55;34.35;;;19.98;;
53775;SDS011;44276;49.534;6.378;2022-07-23T00:31:23;26.42;;;18.92;;
53775;SDS011;44276;49.534;6.378;2022-07-23T00:33:53;34.22;;;17.98;;
53775;SDS011;44276;49.534;6.378;2022-07-23T00:36:22;30.58;;;18.92;;
53775;SDS011;44276;49.534;6.378;2022-07-23T00:38:51;34.08;;;19.65;;
53775;SDS011;44276;49.534;6.378;2022-07-23T00:41:20;34.13;;;18.80;;
53775;SDS011;44276;49.534;6.378;2022-07-23T00:43:48;37.58;;;22.02;;
53775;SDS011;44276;49.534;6.378;2022-07-23T00:46:18;36.05;;;23.05;;
53775;SDS011;44276;49.534;6.378;2022-07-23T00:48:47;38.67;;;23.50;;
53775;SDS011;44276;49.534;6.378;2022-07-23T00:51:16;47.15;;;24.80;;
53775;SDS011;44276;49.534;6.378;2022-07-23T00:53:44;43.05;;;24.85;;
53775;SDS011;44276;49.534;6.378;2022-07-23T00:56:13;48.78;;;25.65;;
53775;SDS011;44276;49.534;6.378;2022-07-23T00:58:43;50.40;;;27.48;;
53775;SDS011;44276;49.534;6.378;2022-07-23T01:01:11;52.95;;;27.25;;
53775;SDS011;44276;49.534;6.378;2022-07-23T01:03:40;50.42;;;26.92;;
53775;SDS011;44276;49.534;6.378;2022-07-23T01:06:08;45.63;;;25.30;;
53775;SDS011;44276;49.534;6.378;2022-07-23T01:08:37;43.92;;;24.27;;
53775;SDS011;44276;49.534;6.378;2022-07-23T01:11:05;35.33;;;22.25;;
53775;SDS011;44276;49.534;6.378;2022-07-23T01:13:33;39.33;;;23.33;;
53775;SDS011;44276;49.534;6.378;2022-07-23T01:16:03;33.83;;;20.05;;
53775;SDS011;44276;49.534;6.378;2022-07-23T01:18:35;36.50;;;19.92;;
53775;SDS011;44276;49.534;6.378;2022-07-23T01:21:04;37.75;;;20.33;;
53775;SDS011;44276;49.534;6.378;2022-07-23T01:23:34;34.92;;;21.65;;
53775;SDS011;44276;49.534;6.378;2022-07-23T01:26:02;37.25;;;23.90;;
53775;SDS011;44276;49.534;6.378;2022-07-23T01:28:30;38.65;;;24.75;;
53775;SDS011;44276;49.534;6.378;2022-07-23T01:30:58;48.17;;;25.80;;
53775;SDS011;44276;49.534;6.378;2022-07-23T01:33:27;49.60;;;25.75;;
53775;SDS011;44276;49.534;6.378;2022-07-23T01:35:55;43.63;;;25.70;;
53775;SDS011;44276;49.534;6.378;2022-07-23T01:38:23;52.08;;;27.75;;
53775;SDS011;44276;49.534;6.378;2022-07-23T01:40:52;44.15;;;25.27;;
53775;SDS011;44276;49.534;6.378;2022-07-23T01:43:21;42.88;;;26.25;;
53775;SDS011;44276;49.534;6.378;2022-07-23T01:45:52;38.50;;;24.15;;
53775;SDS011;44276;49.534;6.378;2022-07-23T01:48:20;43.03;;;23.42;;
53775;SDS011;44276;49.534;6.378;2022-07-23T01:50:49;36.10;;;22.42;;
53775;SDS011;44276;49.534;6.378;2022-07-23T01:53:17;38.58;;;23.48;;
53775;SDS011;44276;49.534;6.378;2022-07-23T01:55:45;33.72;;;21.20;;
53775;SDS011;44276;49.534;6.378;2022-07-23T01:58:15;40.60;;;23.25;;
53775;SDS011;44276;49.534;6.378;2022-07-23T02:00:43;41.67;;;23.40;;
53775;SDS011;44276;49.534;6.378;2022-07-23T02:03:11;43.70;;;24.23;;
53775;SDS011;44276;49.534;6.378;2022-07-23T02:05:39;44.42;;;24.85;;
53775;SDS011;44276;49.534;6.378;2022-07-23T02:08:07;49.35;;;25.90;;
53775;SDS011;44276;49.534;6.378;2022-07-23T02:10:35;49.30;;;25.27;;
53775;SDS011;44276;49.534;6.378;2022-07-23T02:13:04;48.95;;;26.40;;
53775;SDS011;44276;49.534;6.378;2022-07-23T02:15:33;52.25;;;28.05;;
53775;SDS011;44276;49.534;6.378;2022-07-23T02:18:02;55.13;;;27.23;;
53775;SDS011;44276;49.534;6.378;2022-07-23T02:20:31;54.65;;;27.85;;
53775;SDS011;44276;49.534;6.378;2022-07-23T02:22:59;57.55;;;30.05;;
53775;SDS011;44276;49.534;6.378;2022-07-23T02:25:27;59.20;;;30.25;;
53775;SDS011;44276;49.534;6.378;2022-07-23T02:27:56;64.00;;;31.27;;
53775;SDS011;44276;49.534;6.378;2022-07-23T02:30:24;63.90;;;31.40;;
53775;SDS011;44276;49.534;6.378;2022-07-23T02:32:53;60.58;;;31.50;;
53775;SDS011;44276;49.534;6.378;2022-07-23T02:35:21;59.38;;;30.73;;
53775;SDS011;44276;49.534;6.378;2022-07-23T02:37:50;54.63;;;28.20;;
53775;SDS011;44276;49.534;6.378;2022-07-23T02:40:18;57.83;;;28.95;;
53775;SDS011;44276;49.534;6.378;2022-07-23T02:42:47;53.97;;;29.33;;
53775;SDS011;44276;49.534;6.378;2022-07-23T02:45:15;54.55;;;29.17;;
53775;SDS011;44276;49.534;6.378;2022-07-23T02:47:43;49.90;;;29.35;;
53775;SDS011;44276;49.534;6.378;2022-07-23T02:50:12;50.00;;;27.10;;
53775;SDS011;44276;49.534;6.378;2022-07-23T02:52:40;49.55;;;26.67;;
53775;SDS011;44276;49.534;6.378;2022-07-23T02:55:09;50.38;;;27.70;;
53775;SDS011;44276;49.534;6.378;2022-07-23T02:57:38;43.72;;;25.80;;
53775;SDS011;44276;49.534;6.378;2022-07-23T03:00:06;56.65;;;26.15;;
53775;SDS011;44276;49.534;6.378;2022-07-23T03:02:36;46.88;;;25.38;;
53775;SDS011;44276;49.534;6.378;2022-07-23T03:05:05;54.20;;;26.77;;
53775;SDS011;44276;49.534;6.378;2022-07-23T03:07:35;48.42;;;28.20;;
53775;SDS011;44276;49.534;6.378;2022-07-23T03:10:03;47.03;;;26.10;;
53775;SDS011;44276;49.534;6.378;2022-07-23T03:12:32;56.08;;;26.65;;
53775;SDS011;44276;49.534;6.378;2022-07-23T03:15:01;58.03;;;27.98;;
53775;SDS011;44276;49.534;6.378;2022-07-23T03:17:30;56.63;;;27.38;;
53775;SDS011;44276;49.534;6.378;2022-07-23T03:19:58;60.83;;;30.35;;
53775;SDS011;44276;49.534;6.378;2022-07-23T03:22:26;60.10;;;28.45;;
53775;SDS011;44276;49.534;6.378;2022-07-23T03:24:55;62.45;;;30.05;;
53775;SDS011;44276;49.534;6.378;2022-07-23T03:27:24;62.70;;;28.98;;
53775;SDS011;44276;49.534;6.378;2022-07-23T03:29:55;76.47;;;35.38;;
53775;SDS011;44276;49.534;6.378;2022-07-23T03:32:25;74.55;;;33.97;;
53775;SDS011;44276;49.534;6.378;2022-07-23T03:34:54;79.43;;;35.78;;
53775;SDS011;44276;49.534;6.378;2022-07-23T03:37:23;92.13;;;38.90;;
53775;SDS011;44276;49.534;6.378;2022-07-23T03:39:51;87.20;;;39.15;;
53775;SDS011;44276;49.534;6.378;2022-07-23T03:42:20;90.55;;;41.67;;
53775;SDS011;44276;49.534;6.378;2022-07-23T03:44:48;91.47;;;40.80;;
53775;SDS011;44276;49.534;6.378;2022-07-23T03:47:17;97.57;;;41.55;;
53775;SDS011;44276;49.534;6.378;2022-07-23T03:49:48;91.05;;;42.47;;
53775;SDS011;44276;49.534;6.378;2022-07-23T03:52:16;94.65;;;40.83;;
53775;SDS011;44276;49.534;6.378;2022-07-23T03:54:44;101.13;;;41.45;;
53775;SDS011;44276;49.534;6.378;2022-07-23T03:57:12;84.55;;;37.67;;
53775;SDS011;44276;49.534;6.378;2022-07-23T03:59:41;81.88;;;37.60;;
53775;SDS011;44276;49.534;6.378;2022-07-23T04:02:09;91.22;;;40.33;;
53775;SDS011;44276;49.534;6.378;2022-07-23T04:04:38;92.45;;;39.80;;
53775;SDS011;44276;49.534;6.378;2022-07-23T04:07:06;86.40;;;38.83;;
53775;SDS011;44276;49.534;6.378;2022-07-23T04:09:34;76.72;;;37.13;;
53775;SDS011;44276;49.534;6.378;2022-07-23T04:12:02;92.63;;;38.20;;
53775;SDS011;44276;49.534;6.378;2022-07-23T04:14:31;94.50;;;41.22;;
53775;SDS011;44276;49.534;6.378;2022-07-23T04:17:01;95.50;;;39.33;;
53775;SDS011;44276;49.534;6.378;2022-07-23T04:19:29;95.85;;;39.35;;
53775;SDS011;44276;49.534;6.378;2022-07-23T04:21:57;89.90;;;37.85;;
53775;SDS011;44276;49.534;6.378;2022-07-23T04:24:25;101.80;;;41.53;;
53775;SDS011;44276;49.534;6.378;2022-07-23T04:26:53;91.38;;;41.63;;
53775;SDS011;44276;49.534;6.378;2022-07-23T04:29:21;91.75;;;41.35;;
53775;SDS011;44276;49.534;6.378;2022-07-23T04:31:49;99.72;;;40.95;;
53775;SDS011;44276;49.534;6.378;2022-07-23T04:34:19;82.68;;;37.42;;
53775;SDS011;44276;49.534;6.378;2022-07-23T04:36:48;81.22;;;37.78;;
53775;SDS011;44276;49.534;6.378;2022-07-23T04:39:16;79.00;;;35.33;;
53775;SDS011;44276;49.534;6.378;2022-07-23T04:41:44;76.95;;;37.10;;
53775;SDS011;44276;49.534;6.378;2022-07-23T04:44:12;78.85;;;35.28;;
53775;SDS011;44276;49.534;6.378;2022-07-23T04:46:40;70.50;;;32.85;;
53775;SDS011;44276;49.534;6.378;2022-07-23T04:49:09;75.97;;;34.05;;
53775;SDS011;44276;49.534;6.378;2022-07-23T04:51:38;61.67;;;32.03;;
53775;SDS011;44276;49.534;6.378;2022-07-23T04:54:06;56.88;;;31.58;;
53775;SDS011;44276;49.534;6.378;2022-07-23T04:56:34;55.05;;;30.40;;
53775;SDS011;44276;49.534;6.378;2022-07-23T04:59:02;46.83;;;25.63;;
53775;SDS011;44276;49.534;6.378;2022-07-23T05:01:31;41.90;;;24.90;;
53775;SDS011;44276;49.534;6.378;2022-07-23T05:03:59;43.60;;;25.80;;
53775;SDS011;44276;49.534;6.378;2022-07-23T05:06:27;46.22;;;26.10;;
53775;SDS011;44276;49.534;6.378;2022-07-23T05:08:57;40.33;;;27.58;;
53775;SDS011;44276;49.534;6.378;2022-07-23T05:11:25;38.83;;;23.73;;
53775;SDS011;44276;49.534;6.378;2022-07-23T05:13:53;43.83;;;24.08;;
53775;SDS011;44276;49.534;6.378;2022-07-23T05:16:22;39.75;;;23.10;;
53775;SDS011;44276;49.534;6.378;2022-07-23T05:18:50;46.90;;;23.08;;
53775;SDS011;44276;49.534;6.378;2022-07-23T05:21:18;33.72;;;20.40;;
53775;SDS011;44276;49.534;6.378;2022-07-23T05:23:46;30.83;;;18.48;;
53775;SDS011;44276;49.534;6.378;2022-07-23T05:26:16;23.90;;;17.35;;
53775;SDS011;44276;49.534;6.378;2022-07-23T05:28:46;23.48;;;15.85;;
53775;SDS011;44276;49.534;6.378;2022-07-23T05:31:15;21.13;;;15.98;;
53775;SDS011;44276;49.534;6.378;2022-07-23T05:33:44;23.55;;;15.75;;
53775;SDS011;44276;49.534;6.378;2022-07-23T05:36:12;23.98;;;14.25;;
53775;SDS011;44276;49.534;6.378;2022-07-23T05:38:40;26.15;;;14.23;;
53775;SDS011;44276;49.534;6.378;2022-07-23T05:41:08;20.92;;;13.07;;
53775;SDS011;44276;49.534;6.378;2022-07-23T05:43:38;21.92;;;12.18;;
53775;SDS011;44276;49.534;6.378;2022-07-23T05:46:06;17.67;;;12.93;;
53775;SDS011;44276;49.534;6.378;2022-07-23T05:48:35;22.13;;;15.27;;
53775;SDS011;44276;49.534;6.378;2022-07-23T05:51:04;21.30;;;15.07;;
53775;SDS011;44276;49.534;6.378;2022-07-23T05:53:33;25.23;;;15.23;;
53775;SDS011;44276;49.534;6.378;2022-07-23T05:56:02;20.10;;;13.60;;
53775;SDS011;44276;49.534;6.378;2022-07-23T05:58:31;20.55;;;12.57;;
53775;SDS011;44276;49.534;6.378;2022-07-23T06:01:00;18.65;;;13.95;;
53775;SDS011;44276;49.534;6.378;2022-07-23T06:03:28;16.98;;;12.35;;
53775;SDS011;44276;49.534;6.378;2022-07-23T06:05:57;19.95;;;13.45;;
53775;SDS011;44276;49.534;6.378;2022-07-23T06:08:25;18.67;;;12.95;;
53775;SDS011;44276;49.534;6.378;2022-07-23T06:10:53;19.52;;;14.15;;
53775;SDS011;44276;49.534;6.378;2022-07-23T06:13:21;17.75;;;11.98;;
53775;SDS011;44276;49.534;6.378;2022-07-23T06:15:49;20.23;;;14.20;;
53775;SDS011;44276;49.534;6.378;2022-07-23T06:18:19;20.83;;;13.70;;
53775;SDS011;44276;49.534;6.378;2022-07-23T06:20:47;21.20;;;13.35;;
53775;SDS011;44276;49.534;6.378;2022-07-23T06:23:19;17.13;;;13.05;;
53775;SDS011;44276;49.534;6.378;2022-07-23T06:25:47;19.92;;;11.95;;
53775;SDS011;44276;49.534;6.378;2022-07-23T06:28:16;19.33;;;12.23;;
53775;SDS011;44276;49.534;6.378;2022-07-23T06:30:47;13.10;;;10.50;;
53775;SDS011;44276;49.534;6.378;2022-07-23T06:33:15;18.98;;;12.93;;
53775;SDS011;44276;49.534;6.378;2022-07-23T06:35:45;19.17;;;12.80;;
53775;SDS011;44276;49.534;6.378;2022-07-23T06:38:14;19.60;;;12.77;;
53775;SDS011;44276;49.534;6.378;2022-07-23T06:40:42;32.25;;;13.00;;
53775;SDS011;44276;49.534;6.378;2022-07-23T06:43:11;20.48;;;12.43;;
53775;SDS011;44276;49.534;6.378;2022-07-23T06:45:39;19.77;;;11.95;;
53775;SDS011;44276;49.534;6.378;2022-07-23T06:48:07;15.98;;;11.80;;
53775;SDS011;44276;49.534;6.378;2022-07-23T06:50:36;17.42;;;12.80;;
53775;SDS011;44276;49.534;6.378;2022-07-23T06:53:05;17.70;;;13.05;;
53775;SDS011;44276;49.534;6.378;2022-07-23T06:55:34;19.83;;;13.13;;
53775;SDS011;44276;49.534;6.378;2022-07-23T06:58:05;19.65;;;12.50;;
53775;SDS011;44276;49.534;6.378;2022-07-23T07:00:35;18.65;;;12.35;;
53775;SDS011;44276;49.534;6.378;2022-07-23T07:03:06;13.55;;;10.68;;
53775;SDS011;44276;49.534;6.378;2022-07-23T07:05:35;12.15;;;9.65;;
53775;SDS011;44276;49.534;6.378;2022-07-23T07:08:04;18.23;;;10.75;;
53775;SDS011;44276;49.534;6.378;2022-07-23T07:10:33;18.25;;;10.93;;
53775;SDS011;44276;49.534;6.378;2022-07-23T07:13:01;16.70;;;11.35;;
53775;SDS011;44276;49.534;6.378;2022-07-23T07:15:32;14.73;;;10.05;;
53775;SDS011;44276;49.534;6.378;2022-07-23T07:18:00;16.02;;;9.95;;
53775;SDS011;44276;49.534;6.378;2022-07-23T07:20:28;17.83;;;8.98;;
53775;SDS011;44276;49.534;6.378;2022-07-23T07:22:56;16.13;;;10.57;;
53775;SDS011;44276;49.534;6.378;2022-07-23T07:25:26;12.38;;;8.55;;
53775;SDS011;44276;49.534;6.378;2022-07-23T07:27:55;12.32;;;8.63;;
53775;SDS011;44276;49.534;6.378;2022-07-23T07:30:24;13.98;;;8.55;;
53775;SDS011;44276;49.534;6.378;2022-07-23T07:32:59;10.68;;;8.55;;
53775;SDS011;44276;49.534;6.378;2022-07-23T07:35:27;11.80;;;9.05;;
53775;SDS011;44276;49.534;6.378;2022-07-23T07:37:55;12.38;;;7.90;;
53775;SDS011;44276;49.534;6.378;2022-07-23T07:40:23;16.75;;;9.15;;
53775;SDS011;44276;49.534;6.378;2022-07-23T07:43:00;14.00;;;10.02;;
53775;SDS011;44276;49.534;6.378;2022-07-23T07:45:29;10.82;;;7.97;;
53775;SDS011;44276;49.534;6.378;2022-07-23T07:47:58;10.48;;;8.50;;
53775;SDS011;44276;49.534;6.378;2022-07-23T07:50:26;10.48;;;7.57;;
53775;SDS011;44276;49.534;6.378;2022-07-23T07:52:54;15.38;;;7.68;;
53775;SDS011;44276;49.534;6.378;2022-07-23T07:55:22;11.32;;;7.82;;
53775;SDS011;44276;49.534;6.378;2022-07-23T07:57:51;7.60;;;6.40;;
53775;SDS011;44276;49.534;6.378;2022-07-23T08:00:20;8.80;;;7.20;;
53775;SDS011;44276;49.534;6.378;2022-07-23T08:02:49;12.68;;;8.57;;
53775;SDS011;44276;49.534;6.378;2022-07-23T08:05:20;9.57;;;6.05;;
53775;SDS011;44276;49.534;6.378;2022-07-23T08:07:53;7.25;;;5.55;;
53775;SDS011;44276;49.534;6.378;2022-07-23T08:10:22;6.85;;;5.07;;
53775;SDS011;44276;49.534;6.378;2022-07-23T08:12:52;6.40;;;5.20;;
53775;SDS011;44276;49.534;6.378;2022-07-23T08:15:24;8.05;;;5.90;;
53775;SDS011;44276;49.534;6.378;2022-07-23T08:17:55;6.18;;;5.15;;
53775;SDS011;44276;49.534;6.378;2022-07-23T08:20:24;5.82;;;5.20;;
53775;SDS011;44276;49.534;6.378;2022-07-23T08:22:55;8.82;;;4.95;;
53775;SDS011;44276;49.534;6.378;2022-07-23T08:25:26;9.07;;;5.75;;
53775;SDS011;44276;49.534;6.378;2022-07-23T08:27:55;6.47;;;5.32;;
53775;SDS011;44276;49.534;6.378;2022-07-23T08:30:27;6.65;;;5.57;;
53775;SDS011;44276;49.534;6.378;2022-07-23T08:32:57;7.55;;;5.30;;
53775;SDS011;44276;49.534;6.378;2022-07-23T08:35:29;10.18;;;6.25;;
53775;SDS011;44276;49.534;6.378;2022-07-23T08:38:01;8.25;;;6.95;;
53775;SDS011;44276;49.534;6.378;2022-07-23T08:40:34;7.00;;;6.07;;
53775;SDS011;44276;49.534;6.378;2022-07-23T08:43:09;6.70;;;5.07;;
53775;SDS011;44276;49.534;6.378;2022-07-23T08:45:41;7.88;;;5.40;;
53775;SDS011;44276;49.534;6.378;2022-07-23T08:48:13;13.50;;;6.65;;
53775;SDS011;44276;49.534;6.378;2022-07-23T08:50:46;8.60;;;4.97;;
53775;SDS011;44276;49.534;6.378;2022-07-23T08:53:16;8.70;;;5.40;;
53775;SDS011;44276;49.534;6.378;2022-07-23T08:55:46;5.85;;;4.63;;
53775;SDS011;44276;49.534;6.378;2022-07-23T08:58:16;10.95;;;5.53;;
53775;SDS011;44276;49.534;6.378;2022-07-23T09:00:54;7.07;;;5.53;;
53775;SDS011;44276;49.534;6.378;2022-07-23T09:03:25;5.55;;;4.93;;
53775;SDS011;44276;49.534;6.378;2022-07-23T09:05:55;7.85;;;4.88;;
53775;SDS011;44276;49.534;6.378;2022-07-23T09:08:27;7.25;;;4.65;;
53775;SDS011;44276;49.534;6.378;2022-07-23T09:11:04;8.20;;;5.10;;
53775;SDS011;44276;49.534;6.378;2022-07-23T09:13:36;9.13;;;5.07;;
53775;SDS011;44276;49.534;6.378;2022-07-23T09:16:09;5.25;;;4.53;;
53775;SDS011;44276;49.534;6.378;2022-07-23T09:18:43;5.60;;;4.82;;
53775;SDS011;44276;49.534;6.378;2022-07-23T09:21:16;5.25;;;4.57;;
53775;SDS011;44276;49.534;6.378;2022-07-23T09:23:49;6.43;;;5.03;;
53775;SDS011;44276;49.534;6.378;2022-07-23T09:26:26;6.35;;;4.40;;
53775;SDS011;44276;49.534;6.378;2022-07-23T09:29:11;8.48;;;5.72;;
53775;SDS011;44276;49.534;6.378;2022-07-23T09:31:46;9.80;;;5.15;;
53775;SDS011;44276;49.534;6.378;2022-07-23T09:34:19;7.75;;;5.57;;
53775;SDS011;44276;49.534;6.378;2022-07-23T09:36:51;7.38;;;5.95;;
53775;SDS011;44276;49.534;6.378;2022-07-23T09:39:27;5.93;;;5.32;;
53775;SDS011;44276;49.534;6.378;2022-07-23T09:41:58;8.93;;;5.22;;
53775;SDS011;44276;49.534;6.378;2022-07-23T09:44:42;8.18;;;4.63;;
53775;SDS011;44276;49.534;6.378;2022-07-23T09:47:14;4.85;;;4.38;;
53775;SDS011;44276;49.534;6.378;2022-07-23T09:49:45;5.95;;;4.57;;
53775;SDS011;44276;49.534;6.378;2022-07-23T09:52:28;8.23;;;4.85;;
53775;SDS011;44276;49.534;6.378;2022-07-23T09:55:01;6.28;;;5.43;;
53775;SDS011;44276;49.534;6.378;2022-07-23T09:57:32;5.65;;;4.13;;
53775;SDS011;44276;49.534;6.378;2022-07-23T10:00:01;5.18;;;4.35;;
53775;SDS011;44276;49.534;6.378;2022-07-23T10:02:33;5.10;;;4.25;;
53775;SDS011;44276;49.534;6.378;2022-07-23T10:05:03;5.53;;;4.53;;
53775;SDS011;44276;49.534;6.378;2022-07-23T10:07:34;5.70;;;4.68;;
53775;SDS011;44276;49.534;6.378;2022-07-23T10:10:06;5.60;;;4.60;;
53775;SDS011;44276;49.534;6.378;2022-07-23T10:12:35;4.72;;;4.03;;
53775;SDS011;44276;49.534;6.378;2022-07-23T10:15:21;7.82;;;4.70;;
53775;SDS011;44276;49.534;6.378;2022-07-23T10:17:51;5.15;;;4.07;;
53775;SDS011;44276;49.534;6.378;2022-07-23T10:20:19;6.18;;;5.45;;
53775;SDS011;44276;49.534;6.378;2022-07-23T10:22:47;7.72;;;5.40;;
53775;SDS011;44276;49.534;6.378;2022-07-23T10:25:32;7.35;;;4.90;;
53775;SDS011;44276;49.534;6.378;2022-07-23T10:28:12;5.80;;;4.75;;
53775;SDS011;44276;49.534;6.378;2022-07-23T10:31:08;6.93;;;4.72;;
53775;SDS011;44276;49.534;6.378;2022-07-23T10:34:14;6.38;;;4.80;;
53775;SDS011;44276;49.534;6.378;2022-07-23T10:36:52;6.55;;;5.00;;
53775;SDS011;44276;49.534;6.378;2022-07-23T10:39:28;6.97;;;5.57;;
53775;SDS011;44276;49.534;6.378;2022-07-23T10:42:07;5.63;;;4.70;;
53775;SDS011;44276;49.534;6.378;2022-07-23T10:44:38;6.40;;;5.47;;
53775;SDS011;44276;49.534;6.378;2022-07-23T10:47:09;6.60;;;4.88;;
53775;SDS011;44276;49.534;6.378;2022-07-23T10:49:53;5.50;;;4.40;;
53775;SDS011;44276;49.534;6.378;2022-07-23T10:52:41;7.40;;;5.30;;
53775;SDS011;44276;49.534;6.378;2022-07-23T10:55:41;7.55;;;5.18;;
53775;SDS011;44276;49.534;6.378;2022-07-23T10:58:16;5.93;;;4.75;;
53775;SDS011;44276;49.534;6.378;2022-07-23T11:00:47;6.30;;;4.53;;
53775;SDS011;44276;49.534;6.378;2022-07-23T11:03:33;5.95;;;4.28;;
53775;SDS011;44276;49.534;6.378;2022-07-23T11:06:07;5.10;;;4.60;;
53775;SDS011;44276;49.534;6.378;2022-07-23T11:08:35;5.65;;;4.35;;
53775;SDS011;44276;49.534;6.378;2022-07-23T11:11:10;5.25;;;4.75;;
53775;SDS011;44276;49.534;6.378;2022-07-23T11:13:40;6.70;;;5.35;;
53775;SDS011;44276;49.534;6.378;2022-07-23T11:16:20;5.70;;;4.35;;
53775;SDS011;44276;49.534;6.378;2022-07-23T11:21:48;6.60;;;4.38;;
53775;SDS011;44276;49.534;6.378;2022-07-23T11:24:22;5.25;;;4.55;;
53775;SDS011;44276;49.534;6.378;2022-07-23T11:26:56;6.28;;;4.68;;
53775;SDS011;44276;49.534;6.378;2022-07-23T11:29:40;5.60;;;4.70;;
53775;SDS011;44276;49.534;6.378;2022-07-23T11:32:23;4.85;;;4.38;;
53775;SDS011;44276;49.534;6.378;2022-07-23T11:34:59;6.90;;;5.10;;
53775;SDS011;44276;49.534;6.378;2022-07-23T11:37:31;8.45;;;5.47;;
53775;SDS011;44276;49.534;6.378;2022-07-23T11:40:03;8.30;;;4.70;;
53775;SDS011;44276;49.534;6.378;2022-07-23T11:42:38;5.50;;;4.93;;
53775;SDS011;44276;49.534;6.378;2022-07-23T11:45:07;6.65;;;5.05;;
53775;SDS011;44276;49.534;6.378;2022-07-23T11:47:36;8.05;;;5.35;;
53775;SDS011;44276;49.534;6.378;2022-07-23T11:50:05;7.57;;;5.53;;
53775;SDS011;44276;49.534;6.378;2022-07-23T11:52:35;7.78;;;4.90;;
53775;SDS011;44276;49.534;6.378;2022-07-23T11:55:05;8.73;;;5.05;;
53775;SDS011;44276;49.534;6.378;2022-07-23T11:57:36;6.00;;;5.35;;
53775;SDS011;44276;49.534;6.378;2022-07-23T12:00:07;7.22;;;4.88;;
53775;SDS011;44276;49.534;6.378;2022-07-23T12:02:38;5.57;;;4.63;;
53775;SDS011;44276;49.534;6.378;2022-07-23T12:05:07;8.52;;;5.60;;
53775;SDS011;44276;49.534;6.378;2022-07-23T12:07:41;5.22;;;4.72;;
53775;SDS011;44276;49.534;6.378;2022-07-23T12:10:12;9.90;;;6.18;;
53775;SDS011;44276;49.534;6.378;2022-07-23T12:12:44;9.18;;;5.60;;
53775;SDS011;44276;49.534;6.378;2022-07-23T12:15:17;6.63;;;4.90;;
53775;SDS011;44276;49.534;6.378;2022-07-23T12:17:49;7.13;;;4.20;;
53775;SDS011;44276;49.534;6.378;2022-07-23T12:20:20;6.65;;;4.90;;
53775;SDS011;44276;49.534;6.378;2022-07-23T12:22:53;8.32;;;5.35;;
53775;SDS011;44276;49.534;6.378;2022-07-23T12:25:26;6.35;;;5.03;;
53775;SDS011;44276;49.534;6.378;2022-07-23T12:27:58;4.90;;;4.38;;
53775;SDS011;44276;49.534;6.378;2022-07-23T12:30:33;6.25;;;5.10;;
53775;SDS011;44276;49.534;6.378;2022-07-23T12:33:05;8.38;;;5.32;;
53775;SDS011;44276;49.534;6.378;2022-07-23T12:35:37;7.20;;;4.53;;
53775;SDS011;44276;49.534;6.378;2022-07-23T12:38:11;6.85;;;5.13;;
53775;SDS011;44276;49.534;6.378;2022-07-23T12:40:42;6.57;;;4.95;;
53775;SDS011;44276;49.534;6.378;2022-07-23T12:43:18;7.72;;;5.22;;
53775;SDS011;44276;49.534;6.378;2022-07-23T12:45:50;6.43;;;4.60;;
53775;SDS011;44276;49.534;6.378;2022-07-23T12:48:21;7.22;;;4.60;;
53775;SDS011;44276;49.534;6.378;2022-07-23T12:50:53;6.47;;;5.15;;
53775;SDS011;44276;49.534;6.378;2022-07-23T12:53:27;5.65;;;4.88;;
53775;SDS011;44276;49.534;6.378;2022-07-23T12:56:00;6.10;;;4.43;;
53775;SDS011;44276;49.534;6.378;2022-07-23T12:58:45;6.32;;;4.13;;
53775;SDS011;44276;49.534;6.378;2022-07-23T13:04:00;6.05;;;4.65;;
53775;SDS011;44276;49.534;6.378;2022-07-23T13:06:51;5.10;;;4.35;;
53775;SDS011;44276;49.534;6.378;2022-07-23T13:09:27;5.32;;;4.43;;
53775;SDS011;44276;49.534;6.378;2022-07-23T13:12:02;6.70;;;4.50;;
53775;SDS011;44276;49.534;6.378;2022-07-23T13:14:31;7.43;;;4.50;;
53775;SDS011;44276;49.534;6.378;2022-07-23T13:17:00;4.82;;;3.78;;
53775;SDS011;44276;49.534;6.378;2022-07-23T13:19:32;6.03;;;4.15;;
53775;SDS011;44276;49.534;6.378;2022-07-23T13:22:00;4.63;;;4.13;;
53775;SDS011;44276;49.534;6.378;2022-07-23T13:24:36;6.78;;;4.13;;
53775;SDS011;44276;49.534;6.378;2022-07-23T13:27:05;8.82;;;4.78;;
53775;SDS011;44276;49.534;6.378;2022-07-23T13:29:36;5.50;;;4.00;;
53775;SDS011;44276;49.534;6.378;2022-07-23T13:32:04;7.63;;;4.88;;
53775;SDS011;44276;49.534;6.378;2022-07-23T13:34:53;5.40;;;4.57;;
53775;SDS011;44276;49.534;6.378;2022-07-23T13:37:21;6.70;;;5.15;;
53775;SDS011;44276;49.534;6.378;2022-07-23T13:39:51;7.63;;;6.05;;
53775;SDS011;44276;49.534;6.378;2022-07-23T13:42:20;6.32;;;5.15;;
53775;SDS011;44276;49.534;6.378;2022-07-23T13:44:49;5.07;;;4.47;;
53775;SDS011;44276;49.534;6.378;2022-07-23T13:47:17;7.45;;;5.13;;
53775;SDS011;44276;49.534;6.378;2022-07-23T13:49:45;7.60;;;4.95;;
53775;SDS011;44276;49.534;6.378;2022-07-23T13:52:13;6.57;;;4.35;;
53775;SDS011;44276;49.534;6.378;2022-07-23T13:54:42;6.00;;;5.03;;
53775;SDS011;44276;49.534;6.378;2022-07-23T13:57:12;6.03;;;5.18;;
53775;SDS011;44276;49.534;6.378;2022-07-23T13:59:40;5.65;;;4.00;;
53775;SDS011;44276;49.534;6.378;2022-07-23T14:02:08;5.90;;;4.03;;
53775;SDS011;44276;49.534;6.378;2022-07-23T14:04:50;4.95;;;4.38;;
53775;SDS011;44276;49.534;6.378;2022-07-23T14:07:19;5.13;;;3.88;;
53775;SDS011;44276;49.534;6.378;2022-07-23T14:09:47;5.65;;;4.05;;
53775;SDS011;44276;49.534;6.378;2022-07-23T14:12:18;5.20;;;3.83;;
53775;SDS011;44276;49.534;6.378;2022-07-23T14:14:49;5.55;;;3.90;;
53775;SDS011;44276;49.534;6.378;2022-07-23T14:17:17;7.18;;;4.63;;
53775;SDS011;44276;49.534;6.378;2022-07-23T14:19:46;5.60;;;4.95;;
53775;SDS011;44276;49.534;6.378;2022-07-23T14:22:14;5.88;;;4.75;;
53775;SDS011;44276;49.534;6.378;2022-07-23T14:24:42;5.35;;;4.38;;
53775;SDS011;44276;49.534;6.378;2022-07-23T14:27:11;10.15;;;5.60;;
53775;SDS011;44276;49.534;6.378;2022-07-23T14:29:42;7.90;;;5.50;;
53775;SDS011;44276;49.534;6.378;2022-07-23T14:32:10;13.13;;;5.65;;
53775;SDS011;44276;49.534;6.378;2022-07-23T14:34:39;5.57;;;5.03;;
53775;SDS011;44276;49.534;6.378;2022-07-23T14:37:07;6.53;;;5.30;;
53775;SDS011;44276;49.534;6.378;2022-07-23T14:39:40;6.65;;;4.65;;
53775;SDS011;44276;49.534;6.378;2022-07-23T14:42:11;6.13;;;4.90;;
53775;SDS011;44276;49.534;6.378;2022-07-23T14:44:42;7.63;;;5.00;;
53775;SDS011;44276;49.534;6.378;2022-07-23T14:47:10;8.90;;;4.57;;
53775;SDS011;44276;49.534;6.378;2022-07-23T14:52:14;8.23;;;4.90;;
53775;SDS011;44276;49.534;6.378;2022-07-23T14:54:43;6.55;;;4.10;;
53775;SDS011;44276;49.534;6.378;2022-07-23T14:57:11;6.13;;;5.05;;
53775;SDS011;44276;49.534;6.378;2022-07-23T14:59:42;6.72;;;4.88;;
53775;SDS011;44276;49.534;6.378;2022-07-23T15:02:11;3.78;;;3.40;;